sensor_id;sensor_type;location;lat;lon;timestamp;P1;durP1;ratioP1;P2;durP2;ratioP2
75700;SDS011;64321;48.796;44.740;2023-04-06T00:00:41;9.65;;;5.35;;
75700;SDS011;64321;48.796;44.740;2023-04-06T00:06:23;7.03;;;5.13;;
75700;SDS011;64321;48.796;44.740;2023-04-06T00:12:11;8.27;;;4.15;;
75700;SDS011;64321;48.796;44.740;2023-04-06T00:18:08;6.57;;;3.75;;
75700;SDS011;64321;48.796;44.740;2023-04-06T00:23:40;7.40;;;3.75;;
75700;SDS011;64321;48.796;44.740;2023-04-06T00:29:31;5.28;;;3.40;;
75700;SDS011;64321;48.796;44.740;2023-04-06T00:35:29;8.10;;;4.80;;
75700;SDS011;64321;48.796;44.740;2023-04-06T00:41:38;9.52;;;4.00;;
75700;SDS011;64321;48.796;44.740;2023-04-06T00:46:54;6.30;;;3.38;;
75700;SDS011;64321;48.796;44.740;2023-04-06T00:52:15;7.78;;;3.70;;
75700;SDS011;64321;48.796;44.740;2023-04-06T00:57:47;7.30;;;3.58;;
75700;SDS011;64321;48.796;44.740;2023-04-06T01:09:19;7.25;;;5.13;;
75700;SDS011;64321;48.796;44.740;2023-04-06T01:27:51;9.80;;;4.80;;
75700;SDS011;64321;48.796;44.740;2023-04-06T01:33:22;10.13;;;5.18;;
75700;SDS011;64321;48.796;44.740;2023-04-06T01:39:16;10.98;;;4.15;;
75700;SDS011;64321;48.796;44.740;2023-04-06T01:45:15;6.97;;;3.88;;
75700;SDS011;64321;48.796;44.740;2023-04-06T01:50:56;8.00;;;4.30;;
75700;SDS011;64321;48.796;44.740;2023-04-06T01:57:17;10.27;;;4.80;;
75700;SDS011;64321;48.796;44.740;2023-04-06T02:03:12;10.40;;;6.00;;
75700;SDS011;64321;48.796;44.740;2023-04-06T02:08:42;10.77;;;5.18;;
75700;SDS011;64321;48.796;44.740;2023-04-06T02:14:00;13.23;;;7.28;;
75700;SDS011;64321;48.796;44.740;2023-04-06T02:19:56;9.57;;;4.38;;
75700;SDS011;64321;48.796;44.740;2023-04-06T02:25:21;13.07;;;5.65;;
75700;SDS011;64321;48.796;44.740;2023-04-06T02:31:05;9.23;;;4.20;;
75700;SDS011;64321;48.796;44.740;2023-04-06T02:36:49;8.52;;;4.20;;
75700;SDS011;64321;48.796;44.740;2023-04-06T02:42:22;7.22;;;3.83;;
75700;SDS011;64321;48.796;44.740;2023-04-06T02:48:42;8.75;;;4.65;;
75700;SDS011;64321;48.796;44.740;2023-04-06T02:54:02;7.20;;;3.40;;
75700;SDS011;64321;48.796;44.740;2023-04-06T02:59:52;7.97;;;3.67;;
75700;SDS011;64321;48.796;44.740;2023-04-06T03:05:39;6.88;;;2.92;;
75700;SDS011;64321;48.796;44.740;2023-04-06T03:11:00;6.32;;;2.88;;
75700;SDS011;64321;48.796;44.740;2023-04-06T03:16:30;13.13;;;3.83;;
75700;SDS011;64321;48.796;44.740;2023-04-06T03:22:28;6.97;;;3.25;;
75700;SDS011;64321;48.796;44.740;2023-04-06T03:28:00;11.43;;;3.35;;
75700;SDS011;64321;48.796;44.740;2023-04-06T03:34:22;10.30;;;3.15;;
75700;SDS011;64321;48.796;44.740;2023-04-06T03:39:57;10.85;;;4.03;;
75700;SDS011;64321;48.796;44.740;2023-04-06T03:45:16;11.20;;;4.00;;
75700;SDS011;64321;48.796;44.740;2023-04-06T03:51:31;13.68;;;4.43;;
75700;SDS011;64321;48.796;44.740;2023-04-06T03:57:19;15.45;;;6.32;;
75700;SDS011;64321;48.796;44.740;2023-04-06T04:02:46;21.38;;;10.40;;
75700;SDS011;64321;48.796;44.740;2023-04-06T04:08:19;15.30;;;5.78;;
75700;SDS011;64321;48.796;44.740;2023-04-06T04:14:04;10.30;;;5.22;;
75700;SDS011;64321;48.796;44.740;2023-04-06T04:19:54;12.25;;;3.28;;
75700;SDS011;64321;48.796;44.740;2023-04-06T04:26:16;16.45;;;4.18;;
75700;SDS011;64321;48.796;44.740;2023-04-06T04:37:47;21.27;;;5.70;;
75700;SDS011;64321;48.796;44.740;2023-04-06T04:44:00;18.38;;;6.80;;
75700;SDS011;64321;48.796;44.740;2023-04-06T04:49:14;19.65;;;6.85;;
75700;SDS011;64321;48.796;44.740;2023-04-06T04:55:01;26.23;;;10.57;;
75700;SDS011;64321;48.796;44.740;2023-04-06T05:00:51;25.52;;;8.15;;
75700;SDS011;64321;48.796;44.740;2023-04-06T05:06:32;25.65;;;5.80;;
75700;SDS011;64321;48.796;44.740;2023-04-06T05:12:33;26.52;;;7.47;;
75700;SDS011;64321;48.796;44.740;2023-04-06T05:18:28;30.75;;;8.82;;
75700;SDS011;64321;48.796;44.740;2023-04-06T05:30:36;32.90;;;9.73;;
75700;SDS011;64321;48.796;44.740;2023-04-06T05:36:10;30.83;;;9.50;;
75700;SDS011;64321;48.796;44.740;2023-04-06T05:41:40;26.45;;;8.40;;
75700;SDS011;64321;48.796;44.740;2023-04-06T05:46:50;22.98;;;6.50;;
75700;SDS011;64321;48.796;44.740;2023-04-06T05:51:53;19.85;;;7.13;;
75700;SDS011;64321;48.796;44.740;2023-04-06T05:56:56;26.45;;;6.90;;
75700;SDS011;64321;48.796;44.740;2023-04-06T06:01:59;27.63;;;6.90;;
75700;SDS011;64321;48.796;44.740;2023-04-06T06:07:07;16.73;;;5.13;;
75700;SDS011;64321;48.796;44.740;2023-04-06T06:12:18;23.15;;;5.00;;
75700;SDS011;64321;48.796;44.740;2023-04-06T06:17:22;27.88;;;8.00;;
75700;SDS011;64321;48.796;44.740;2023-04-06T06:22:25;29.38;;;8.50;;
75700;SDS011;64321;48.796;44.740;2023-04-06T06:27:27;32.70;;;9.00;;
75700;SDS011;64321;48.796;44.740;2023-04-06T06:32:30;33.58;;;13.88;;
75700;SDS011;64321;48.796;44.740;2023-04-06T06:37:34;33.42;;;8.88;;
75700;SDS011;64321;48.796;44.740;2023-04-06T06:42:38;27.75;;;8.48;;
75700;SDS011;64321;48.796;44.740;2023-04-06T06:47:53;32.35;;;8.73;;
75700;SDS011;64321;48.796;44.740;2023-04-06T06:52:59;35.97;;;8.13;;
75700;SDS011;64321;48.796;44.740;2023-04-06T06:58:12;45.95;;;7.95;;
75700;SDS011;64321;48.796;44.740;2023-04-06T07:03:29;40.13;;;10.00;;
75700;SDS011;64321;48.796;44.740;2023-04-06T07:09:12;39.70;;;8.32;;
75700;SDS011;64321;48.796;44.740;2023-04-06T07:14:42;34.60;;;6.93;;
75700;SDS011;64321;48.796;44.740;2023-04-06T07:20:09;32.08;;;7.18;;
75700;SDS011;64321;48.796;44.740;2023-04-06T07:25:58;42.50;;;8.70;;
75700;SDS011;64321;48.796;44.740;2023-04-06T07:31:38;31.13;;;5.90;;
75700;SDS011;64321;48.796;44.740;2023-04-06T07:36:46;44.47;;;9.30;;
75700;SDS011;64321;48.796;44.740;2023-04-06T07:41:58;54.10;;;9.73;;
75700;SDS011;64321;48.796;44.740;2023-04-06T07:47:07;51.60;;;9.30;;
75700;SDS011;64321;48.796;44.740;2023-04-06T07:52:26;38.95;;;8.07;;
75700;SDS011;64321;48.796;44.740;2023-04-06T07:57:44;46.97;;;6.68;;
75700;SDS011;64321;48.796;44.740;2023-04-06T08:02:55;51.90;;;6.80;;
75700;SDS011;64321;48.796;44.740;2023-04-06T08:08:08;47.70;;;7.43;;
75700;SDS011;64321;48.796;44.740;2023-04-06T08:13:23;47.78;;;6.63;;
75700;SDS011;64321;48.796;44.740;2023-04-06T08:18:47;42.88;;;6.50;;
75700;SDS011;64321;48.796;44.740;2023-04-06T08:24:00;41.45;;;6.43;;
75700;SDS011;64321;48.796;44.740;2023-04-06T08:29:20;46.08;;;7.82;;
75700;SDS011;64321;48.796;44.740;2023-04-06T08:34:32;49.80;;;5.97;;
75700;SDS011;64321;48.796;44.740;2023-04-06T08:39:46;43.42;;;4.07;;
75700;SDS011;64321;48.796;44.740;2023-04-06T08:45:09;50.92;;;5.18;;
75700;SDS011;64321;48.796;44.740;2023-04-06T08:50:33;49.33;;;6.75;;
75700;SDS011;64321;48.796;44.740;2023-04-06T09:02:17;40.63;;;4.30;;
75700;SDS011;64321;48.796;44.740;2023-04-06T09:07:44;31.67;;;4.40;;
75700;SDS011;64321;48.796;44.740;2023-04-06T09:13:31;31.55;;;4.97;;
75700;SDS011;64321;48.796;44.740;2023-04-06T09:19:15;37.53;;;4.32;;
75700;SDS011;64321;48.796;44.740;2023-04-06T09:24:51;36.55;;;3.72;;
75700;SDS011;64321;48.796;44.740;2023-04-06T09:30:06;43.40;;;5.20;;
75700;SDS011;64321;48.796;44.740;2023-04-06T09:35:12;42.05;;;6.00;;
75700;SDS011;64321;48.796;44.740;2023-04-06T09:41:00;43.55;;;4.82;;
75700;SDS011;64321;48.796;44.740;2023-04-06T09:46:28;40.40;;;5.28;;
75700;SDS011;64321;48.796;44.740;2023-04-06T09:52:06;52.10;;;6.07;;
75700;SDS011;64321;48.796;44.740;2023-04-06T09:57:42;48.45;;;5.22;;
75700;SDS011;64321;48.796;44.740;2023-04-06T10:03:07;34.88;;;5.15;;
75700;SDS011;64321;48.796;44.740;2023-04-06T10:09:25;45.70;;;6.93;;
75700;SDS011;64321;48.796;44.740;2023-04-06T10:21:25;43.75;;;5.32;;
75700;SDS011;64321;48.796;44.740;2023-04-06T10:27:34;55.13;;;6.00;;
75700;SDS011;64321;48.796;44.740;2023-04-06T10:32:54;44.95;;;5.07;;
75700;SDS011;64321;48.796;44.740;2023-04-06T10:39:07;50.78;;;6.63;;
75700;SDS011;64321;48.796;44.740;2023-04-06T10:45:03;49.95;;;5.85;;
75700;SDS011;64321;48.796;44.740;2023-04-06T10:50:39;44.67;;;6.03;;
75700;SDS011;64321;48.796;44.740;2023-04-06T10:56:10;41.70;;;5.00;;
75700;SDS011;64321;48.796;44.740;2023-04-06T11:01:56;37.78;;;5.13;;
75700;SDS011;64321;48.796;44.740;2023-04-06T11:08:49;37.97;;;5.28;;
75700;SDS011;64321;48.796;44.740;2023-04-06T11:15:15;43.65;;;4.43;;
75700;SDS011;64321;48.796;44.740;2023-04-06T11:21:09;43.15;;;4.88;;
75700;SDS011;64321;48.796;44.740;2023-04-06T11:26:46;44.17;;;5.00;;
75700;SDS011;64321;48.796;44.740;2023-04-06T11:38:22;40.45;;;4.82;;
75700;SDS011;64321;48.796;44.740;2023-04-06T11:44:13;45.47;;;5.88;;
75700;SDS011;64321;48.796;44.740;2023-04-06T11:50:07;47.45;;;5.28;;
75700;SDS011;64321;48.796;44.740;2023-04-06T11:56:21;36.13;;;4.60;;
75700;SDS011;64321;48.796;44.740;2023-04-06T12:01:48;39.95;;;4.63;;
75700;SDS011;64321;48.796;44.740;2023-04-06T12:07:46;41.47;;;5.28;;
75700;SDS011;64321;48.796;44.740;2023-04-06T12:13:34;42.83;;;4.93;;
75700;SDS011;64321;48.796;44.740;2023-04-06T12:19:30;45.75;;;5.18;;
75700;SDS011;64321;48.796;44.740;2023-04-06T12:25:11;35.70;;;5.15;;
75700;SDS011;64321;48.796;44.740;2023-04-06T12:31:26;40.30;;;4.90;;
75700;SDS011;64321;48.796;44.740;2023-04-06T12:37:27;46.33;;;4.80;;
75700;SDS011;64321;48.796;44.740;2023-04-06T12:57:28;40.80;;;5.38;;
75700;SDS011;64321;48.796;44.740;2023-04-06T13:03:17;42.55;;;5.18;;
75700;SDS011;64321;48.796;44.740;2023-04-06T13:09:42;52.25;;;5.90;;
75700;SDS011;64321;48.796;44.740;2023-04-06T13:15:15;43.67;;;5.30;;
75700;SDS011;64321;48.796;44.740;2023-04-06T13:21:37;49.95;;;8.48;;
75700;SDS011;64321;48.796;44.740;2023-04-06T13:33:24;53.95;;;7.50;;
75700;SDS011;64321;48.796;44.740;2023-04-06T13:38:59;55.63;;;5.47;;
75700;SDS011;64321;48.796;44.740;2023-04-06T13:44:20;33.35;;;5.05;;
75700;SDS011;64321;48.796;44.740;2023-04-06T13:49:46;36.15;;;5.72;;
75700;SDS011;64321;48.796;44.740;2023-04-06T13:55:14;44.78;;;6.25;;
75700;SDS011;64321;48.796;44.740;2023-04-06T14:01:13;48.67;;;5.28;;
75700;SDS011;64321;48.796;44.740;2023-04-06T14:07:14;46.17;;;7.28;;
75700;SDS011;64321;48.796;44.740;2023-04-06T14:12:43;46.30;;;7.28;;
75700;SDS011;64321;48.796;44.740;2023-04-06T14:18:30;54.65;;;7.28;;
75700;SDS011;64321;48.796;44.740;2023-04-06T14:23:52;64.78;;;8.48;;
75700;SDS011;64321;48.796;44.740;2023-04-06T14:29:24;64.72;;;8.48;;
75700;SDS011;64321;48.796;44.740;2023-04-06T14:34:45;52.47;;;6.57;;
75700;SDS011;64321;48.796;44.740;2023-04-06T14:40:04;41.40;;;5.60;;
75700;SDS011;64321;48.796;44.740;2023-04-06T14:45:46;47.65;;;7.90;;
75700;SDS011;64321;48.796;44.740;2023-04-06T14:51:27;47.45;;;6.90;;
75700;SDS011;64321;48.796;44.740;2023-04-06T14:56:49;37.08;;;5.65;;
75700;SDS011;64321;48.796;44.740;2023-04-06T15:02:26;36.40;;;5.93;;
75700;SDS011;64321;48.796;44.740;2023-04-06T15:08:26;30.42;;;6.00;;
75700;SDS011;64321;48.796;44.740;2023-04-06T15:13:28;48.97;;;7.18;;
75700;SDS011;64321;48.796;44.740;2023-04-06T15:18:31;33.70;;;6.75;;
75700;SDS011;64321;48.796;44.740;2023-04-06T15:23:34;40.72;;;6.30;;
75700;SDS011;64321;48.796;44.740;2023-04-06T15:28:36;46.55;;;9.82;;
75700;SDS011;64321;48.796;44.740;2023-04-06T15:33:38;51.38;;;12.52;;
75700;SDS011;64321;48.796;44.740;2023-04-06T15:38:42;54.40;;;13.50;;
75700;SDS011;64321;48.796;44.740;2023-04-06T15:43:45;61.90;;;13.93;;
75700;SDS011;64321;48.796;44.740;2023-04-06T15:48:48;45.63;;;11.05;;
75700;SDS011;64321;48.796;44.740;2023-04-06T15:53:50;46.03;;;9.50;;
75700;SDS011;64321;48.796;44.740;2023-04-06T15:58:53;38.28;;;8.00;;
75700;SDS011;64321;48.796;44.740;2023-04-06T16:03:56;46.92;;;7.40;;
75700;SDS011;64321;48.796;44.740;2023-04-06T16:08:58;34.30;;;6.25;;
75700;SDS011;64321;48.796;44.740;2023-04-06T16:14:01;36.92;;;7.18;;
75700;SDS011;64321;48.796;44.740;2023-04-06T16:19:03;36.28;;;6.75;;
75700;SDS011;64321;48.796;44.740;2023-04-06T16:24:06;33.28;;;6.95;;
75700;SDS011;64321;48.796;44.740;2023-04-06T16:29:09;32.95;;;6.25;;
75700;SDS011;64321;48.796;44.740;2023-04-06T16:34:12;39.30;;;8.40;;
75700;SDS011;64321;48.796;44.740;2023-04-06T16:39:15;38.20;;;9.73;;
75700;SDS011;64321;48.796;44.740;2023-04-06T16:44:18;49.45;;;9.00;;
75700;SDS011;64321;48.796;44.740;2023-04-06T16:49:21;46.38;;;9.63;;
75700;SDS011;64321;48.796;44.740;2023-04-06T16:54:24;46.88;;;9.50;;
75700;SDS011;64321;48.796;44.740;2023-04-06T16:59:26;33.22;;;6.35;;
75700;SDS011;64321;48.796;44.740;2023-04-06T17:04:29;33.83;;;7.05;;
75700;SDS011;64321;48.796;44.740;2023-04-06T17:09:31;34.50;;;6.78;;
75700;SDS011;64321;48.796;44.740;2023-04-06T17:14:39;35.10;;;6.65;;
75700;SDS011;64321;48.796;44.740;2023-04-06T17:19:41;31.02;;;7.03;;
75700;SDS011;64321;48.796;44.740;2023-04-06T17:24:44;42.22;;;7.70;;
75700;SDS011;64321;48.796;44.740;2023-04-06T17:29:46;35.03;;;6.40;;
75700;SDS011;64321;48.796;44.740;2023-04-06T17:34:49;29.02;;;6.40;;
75700;SDS011;64321;48.796;44.740;2023-04-06T17:39:51;29.83;;;6.85;;
75700;SDS011;64321;48.796;44.740;2023-04-06T17:44:53;31.80;;;6.47;;
75700;SDS011;64321;48.796;44.740;2023-04-06T17:49:59;36.35;;;7.82;;
75700;SDS011;64321;48.796;44.740;2023-04-06T17:55:01;33.78;;;5.50;;
75700;SDS011;64321;48.796;44.740;2023-04-06T18:00:04;31.75;;;4.85;;
75700;SDS011;64321;48.796;44.740;2023-04-06T18:05:07;30.17;;;4.80;;
75700;SDS011;64321;48.796;44.740;2023-04-06T18:10:09;38.00;;;4.38;;
75700;SDS011;64321;48.796;44.740;2023-04-06T18:15:13;30.80;;;4.93;;
75700;SDS011;64321;48.796;44.740;2023-04-06T18:20:16;44.75;;;5.45;;
75700;SDS011;64321;48.796;44.740;2023-04-06T18:25:21;35.45;;;7.10;;
75700;SDS011;64321;48.796;44.740;2023-04-06T18:30:24;36.85;;;4.88;;
75700;SDS011;64321;48.796;44.740;2023-04-06T18:35:27;39.58;;;7.38;;
75700;SDS011;64321;48.796;44.740;2023-04-06T18:40:30;32.03;;;6.28;;
75700;SDS011;64321;48.796;44.740;2023-04-06T18:45:33;38.45;;;6.00;;
75700;SDS011;64321;48.796;44.740;2023-04-06T18:50:36;36.50;;;6.47;;
75700;SDS011;64321;48.796;44.740;2023-04-06T18:55:38;42.35;;;5.65;;
75700;SDS011;64321;48.796;44.740;2023-04-06T19:00:40;31.90;;;4.35;;
75700;SDS011;64321;48.796;44.740;2023-04-06T19:05:43;36.28;;;5.43;;
75700;SDS011;64321;48.796;44.740;2023-04-06T19:10:45;32.38;;;4.13;;
75700;SDS011;64321;48.796;44.740;2023-04-06T19:15:51;33.25;;;4.30;;
75700;SDS011;64321;48.796;44.740;2023-04-06T19:20:53;19.38;;;4.32;;
75700;SDS011;64321;48.796;44.740;2023-04-06T19:25:55;21.30;;;4.57;;
75700;SDS011;64321;48.796;44.740;2023-04-06T19:30:57;24.73;;;4.43;;
75700;SDS011;64321;48.796;44.740;2023-04-06T19:36:01;25.05;;;4.45;;
75700;SDS011;64321;48.796;44.740;2023-04-06T19:41:03;23.20;;;5.18;;
75700;SDS011;64321;48.796;44.740;2023-04-06T19:46:06;20.65;;;4.43;;
75700;SDS011;64321;48.796;44.740;2023-04-06T19:51:10;27.58;;;3.78;;
75700;SDS011;64321;48.796;44.740;2023-04-06T19:56:12;21.88;;;4.70;;
75700;SDS011;64321;48.796;44.740;2023-04-06T20:01:17;13.73;;;3.20;;
75700;SDS011;64321;48.796;44.740;2023-04-06T20:06:19;19.05;;;3.65;;
75700;SDS011;64321;48.796;44.740;2023-04-06T20:11:21;21.80;;;4.53;;
75700;SDS011;64321;48.796;44.740;2023-04-06T20:16:25;18.95;;;4.35;;
75700;SDS011;64321;48.796;44.740;2023-04-06T20:21:27;18.33;;;5.30;;
75700;SDS011;64321;48.796;44.740;2023-04-06T20:26:30;12.80;;;3.10;;
75700;SDS011;64321;48.796;44.740;2023-04-06T20:31:32;21.02;;;4.03;;
75700;SDS011;64321;48.796;44.740;2023-04-06T20:36:35;18.77;;;2.92;;
75700;SDS011;64321;48.796;44.740;2023-04-06T20:41:37;11.23;;;3.28;;
75700;SDS011;64321;48.796;44.740;2023-04-06T20:46:40;15.93;;;3.13;;
75700;SDS011;64321;48.796;44.740;2023-04-06T20:51:45;17.02;;;4.47;;
75700;SDS011;64321;48.796;44.740;2023-04-06T20:56:50;15.82;;;5.00;;
75700;SDS011;64321;48.796;44.740;2023-04-06T21:01:53;22.63;;;4.55;;
75700;SDS011;64321;48.796;44.740;2023-04-06T21:06:55;19.00;;;5.95;;
75700;SDS011;64321;48.796;44.740;2023-04-06T21:11:57;17.98;;;5.47;;
75700;SDS011;64321;48.796;44.740;2023-04-06T21:17:00;15.38;;;4.85;;
75700;SDS011;64321;48.796;44.740;2023-04-06T21:22:02;16.60;;;5.10;;
75700;SDS011;64321;48.796;44.740;2023-04-06T21:27:05;20.33;;;5.53;;
75700;SDS011;64321;48.796;44.740;2023-04-06T21:32:07;14.60;;;4.78;;
75700;SDS011;64321;48.796;44.740;2023-04-06T21:37:09;10.23;;;3.58;;
75700;SDS011;64321;48.796;44.740;2023-04-06T21:42:14;14.70;;;4.15;;
75700;SDS011;64321;48.796;44.740;2023-04-06T21:47:16;17.48;;;5.13;;
75700;SDS011;64321;48.796;44.740;2023-04-06T21:52:20;13.10;;;3.90;;
75700;SDS011;64321;48.796;44.740;2023-04-06T21:57:22;12.93;;;4.20;;
75700;SDS011;64321;48.796;44.740;2023-04-06T22:02:25;14.75;;;4.47;;
75700;SDS011;64321;48.796;44.740;2023-04-06T22:07:27;17.52;;;4.53;;
75700;SDS011;64321;48.796;44.740;2023-04-06T22:12:30;11.90;;;4.00;;
75700;SDS011;64321;48.796;44.740;2023-04-06T22:17:32;15.63;;;5.20;;
75700;SDS011;64321;48.796;44.740;2023-04-06T22:22:35;11.20;;;4.22;;
75700;SDS011;64321;48.796;44.740;2023-04-06T22:27:37;16.00;;;5.90;;
75700;SDS011;64321;48.796;44.740;2023-04-06T22:32:39;12.23;;;3.63;;
75700;SDS011;64321;48.796;44.740;2023-04-06T22:37:42;16.85;;;5.60;;
75700;SDS011;64321;48.796;44.740;2023-04-06T22:42:44;15.60;;;4.10;;
75700;SDS011;64321;48.796;44.740;2023-04-06T22:47:46;14.48;;;3.83;;
75700;SDS011;64321;48.796;44.740;2023-04-06T22:52:51;14.13;;;3.95;;
75700;SDS011;64321;48.796;44.740;2023-04-06T22:57:53;12.77;;;4.65;;
75700;SDS011;64321;48.796;44.740;2023-04-06T23:02:55;11.68;;;4.20;;
75700;SDS011;64321;48.796;44.740;2023-04-06T23:07:58;19.73;;;4.20;;
75700;SDS011;64321;48.796;44.740;2023-04-06T23:13:01;14.13;;;3.75;;
75700;SDS011;64321;48.796;44.740;2023-04-06T23:18:04;10.27;;;4.80;;
75700;SDS011;64321;48.796;44.740;2023-04-06T23:23:06;14.27;;;3.50;;
75700;SDS011;64321;48.796;44.740;2023-04-06T23:28:08;13.70;;;3.00;;
75700;SDS011;64321;48.796;44.740;2023-04-06T23:33:11;13.38;;;3.92;;
75700;SDS011;64321;48.796;44.740;2023-04-06T23:38:13;10.05;;;3.25;;
75700;SDS011;64321;48.796;44.740;2023-04-06T23:43:16;14.75;;;4.03;;
75700;SDS011;64321;48.796;44.740;2023-04-06T23:48:19;12.80;;;3.17;;
75700;SDS011;64321;48.796;44.740;2023-04-06T23:53:21;10.07;;;3.30;;
75700;SDS011;64321;48.796;44.740;2023-04-06T23:58:24;9.07;;;3.20;;
